KJAC/JAC METAR and TAF weather

Enter ICAO airport designator
Station Type Date Time Source
KJAC METAR 2022/06/28 09:56 UTC NOAA

KJAC 280956Z AUTO 02006KT 10SM CLR 08/03 A3038 RMK AO2 SLP234 T00780028


Station Type Date Time Source
KJAC Decoded METAR 2022/06/28 09:56 UTC NOAA

Jackson, Jackson Hole Airport, WY, United States (KJAC) 43-36N 110-44W
Jun 28, 2022 - 05:56 AM EDT / 2022.06.28 0956 UTC
Wind: from the NNE (020 degrees) at 7 MPH (6 KT):0
Visibility: 10 mile(s):0
Sky conditions: clear
Temperature: 46.0 F (7.8 C)
Dew Point: 37.0 F (2.8 C)
Relative Humidity: 70%
Pressure (altimeter): 30.38 in. Hg (1028 hPa)
ob: KJAC 280956Z AUTO 02006KT 10SM CLR 08/03 A3038 RMK AO2 SLP234 T00780028
cycle: 10

Station Type Date Time Source
KJAC TAF 2022/06/28 06:33 UTC NOAA

TAF KJAC 280531Z 2806/2906 01006KT P6SM SCT120
FM281400 VRB05KT P6SM FEW120
FM281900 19012G20KT P6SM VCSH SCT100 BKN130
FM290200 19008KT P6SM SCT100 BKN150

Example: see airport list